sensor_id;sensor_type;location;lat;lon;timestamp;P1;durP1;ratioP1;P2;durP2;ratioP2
51732;SDS011;39139;53.144;6.244;2022-09-21T00:00:52;2.40;;;1.10;;
51732;SDS011;39139;53.144;6.244;2022-09-21T00:03:18;1.27;;;0.95;;
51732;SDS011;39139;53.144;6.244;2022-09-21T00:05:44;1.40;;;0.60;;
51732;SDS011;39139;53.144;6.244;2022-09-21T00:08:10;2.08;;;0.70;;
51732;SDS011;39139;53.144;6.244;2022-09-21T00:10:38;1.02;;;0.85;;
51732;SDS011;39139;53.144;6.244;2022-09-21T00:13:04;1.58;;;0.77;;
51732;SDS011;39139;53.144;6.244;2022-09-21T00:15:33;1.02;;;0.93;;
51732;SDS011;39139;53.144;6.244;2022-09-21T00:17:58;1.00;;;0.60;;
51732;SDS011;39139;53.144;6.244;2022-09-21T00:20:25;4.47;;;1.50;;
51732;SDS011;39139;53.144;6.244;2022-09-21T00:22:53;2.65;;;1.08;;
51732;SDS011;39139;53.144;6.244;2022-09-21T00:25:19;1.45;;;0.80;;
51732;SDS011;39139;53.144;6.244;2022-09-21T00:27:45;4.25;;;1.17;;
51732;SDS011;39139;53.144;6.244;2022-09-21T00:30:15;0.60;;;0.60;;
51732;SDS011;39139;53.144;6.244;2022-09-21T00:32:41;3.28;;;0.55;;
51732;SDS011;39139;53.144;6.244;2022-09-21T00:35:07;0.80;;;0.60;;
51732;SDS011;39139;53.144;6.244;2022-09-21T00:37:33;0.70;;;0.65;;
51732;SDS011;39139;53.144;6.244;2022-09-21T00:39:59;0.70;;;0.60;;
51732;SDS011;39139;53.144;6.244;2022-09-21T00:42:27;0.52;;;0.50;;
51732;SDS011;39139;53.144;6.244;2022-09-21T00:44:55;7.05;;;0.75;;
51732;SDS011;39139;53.144;6.244;2022-09-21T00:47:22;1.88;;;0.50;;
51732;SDS011;39139;53.144;6.244;2022-09-21T00:49:53;1.70;;;0.70;;
51732;SDS011;39139;53.144;6.244;2022-09-21T00:52:22;2.10;;;0.68;;
51732;SDS011;39139;53.144;6.244;2022-09-21T00:54:56;2.50;;;0.75;;
51732;SDS011;39139;53.144;6.244;2022-09-21T00:57:25;2.60;;;0.70;;
51732;SDS011;39139;53.144;6.244;2022-09-21T00:59:55;2.50;;;0.73;;
51732;SDS011;39139;53.144;6.244;2022-09-21T01:02:25;1.05;;;0.90;;
51732;SDS011;39139;53.144;6.244;2022-09-21T01:04:51;0.60;;;0.60;;
51732;SDS011;39139;53.144;6.244;2022-09-21T01:07:21;0.77;;;0.77;;
51732;SDS011;39139;53.144;6.244;2022-09-21T01:09:51;1.63;;;1.02;;
51732;SDS011;39139;53.144;6.244;2022-09-21T01:26:19;1.27;;;0.43;;
51732;SDS011;39139;53.144;6.244;2022-09-21T01:32:01;2.63;;;0.88;;
51732;SDS011;39139;53.144;6.244;2022-09-21T01:34:34;1.83;;;0.43;;
51732;SDS011;39139;53.144;6.244;2022-09-21T01:37:15;0.88;;;0.35;;
51732;SDS011;39139;53.144;6.244;2022-09-21T01:42:11;1.10;;;0.50;;
51732;SDS011;39139;53.144;6.244;2022-09-21T01:44:39;0.70;;;0.38;;
51732;SDS011;39139;53.144;6.244;2022-09-21T01:47:09;0.30;;;0.30;;
51732;SDS011;39139;53.144;6.244;2022-09-21T01:49:47;0.43;;;0.40;;
51732;SDS011;39139;53.144;6.244;2022-09-21T01:52:24;0.85;;;0.77;;
51732;SDS011;39139;53.144;6.244;2022-09-21T02:00:31;3.20;;;0.30;;
51732;SDS011;39139;53.144;6.244;2022-09-21T02:03:11;1.40;;;0.30;;
51732;SDS011;39139;53.144;6.244;2022-09-21T02:05:47;2.92;;;0.43;;
51732;SDS011;39139;53.144;6.244;2022-09-21T02:08:12;0.52;;;0.30;;
51732;SDS011;39139;53.144;6.244;2022-09-21T02:10:41;0.40;;;0.20;;
51732;SDS011;39139;53.144;6.244;2022-09-21T02:13:10;0.87;;;0.20;;
51732;SDS011;39139;53.144;6.244;2022-09-21T02:18:19;2.22;;;0.40;;
51732;SDS011;39139;53.144;6.244;2022-09-21T02:20:56;0.20;;;0.20;;
51732;SDS011;39139;53.144;6.244;2022-09-21T02:23:36;2.00;;;1.40;;
51732;SDS011;39139;53.144;6.244;2022-09-21T02:29:24;1.95;;;0.57;;
51732;SDS011;39139;53.144;6.244;2022-09-21T02:32:02;0.50;;;0.35;;
51732;SDS011;39139;53.144;6.244;2022-09-21T02:34:43;0.45;;;0.45;;
51732;SDS011;39139;53.144;6.244;2022-09-21T02:37:27;1.08;;;0.40;;
51732;SDS011;39139;53.144;6.244;2022-09-21T02:39:59;0.40;;;0.28;;
51732;SDS011;39139;53.144;6.244;2022-09-21T02:42:32;0.70;;;0.30;;
51732;SDS011;39139;53.144;6.244;2022-09-21T02:45:03;0.50;;;0.40;;
51732;SDS011;39139;53.144;6.244;2022-09-21T02:48:19;1.02;;;0.35;;
51732;SDS011;39139;53.144;6.244;2022-09-21T02:53:34;0.98;;;0.55;;
51732;SDS011;39139;53.144;6.244;2022-09-21T02:56:02;0.77;;;0.40;;
51732;SDS011;39139;53.144;6.244;2022-09-21T02:58:32;0.20;;;0.20;;
51732;SDS011;39139;53.144;6.244;2022-09-21T03:01:04;0.75;;;0.30;;
51732;SDS011;39139;53.144;6.244;2022-09-21T03:03:31;1.30;;;0.20;;
51732;SDS011;39139;53.144;6.244;2022-09-21T03:05:57;0.10;;;0.10;;
51732;SDS011;39139;53.144;6.244;2022-09-21T03:08:23;1.90;;;0.30;;
51732;SDS011;39139;53.144;6.244;2022-09-21T03:10:49;5.30;;;0.20;;
51732;SDS011;39139;53.144;6.244;2022-09-21T03:13:15;0.20;;;0.20;;
51732;SDS011;39139;53.144;6.244;2022-09-21T03:15:42;0.20;;;0.10;;
51732;SDS011;39139;53.144;6.244;2022-09-21T03:18:09;0.25;;;0.20;;
51732;SDS011;39139;53.144;6.244;2022-09-21T03:20:37;0.20;;;0.20;;
51732;SDS011;39139;53.144;6.244;2022-09-21T03:23:04;0.70;;;0.30;;
51732;SDS011;39139;53.144;6.244;2022-09-21T03:25:30;5.05;;;0.20;;
51732;SDS011;39139;53.144;6.244;2022-09-21T03:27:56;1.58;;;0.50;;
51732;SDS011;39139;53.144;6.244;2022-09-21T03:30:23;2.28;;;0.50;;
51732;SDS011;39139;53.144;6.244;2022-09-21T03:32:50;1.17;;;0.32;;
51732;SDS011;39139;53.144;6.244;2022-09-21T03:35:17;0.63;;;0.25;;
51732;SDS011;39139;53.144;6.244;2022-09-21T03:37:44;0.40;;;0.40;;
51732;SDS011;39139;53.144;6.244;2022-09-21T03:40:12;0.50;;;0.30;;
51732;SDS011;39139;53.144;6.244;2022-09-21T03:42:39;0.57;;;0.57;;
51732;SDS011;39139;53.144;6.244;2022-09-21T03:45:05;11.23;;;0.88;;
51732;SDS011;39139;53.144;6.244;2022-09-21T03:47:32;1.38;;;0.47;;
51732;SDS011;39139;53.144;6.244;2022-09-21T03:49:58;0.75;;;0.65;;
51732;SDS011;39139;53.144;6.244;2022-09-21T03:52:23;0.60;;;0.22;;
51732;SDS011;39139;53.144;6.244;2022-09-21T03:54:49;0.38;;;0.30;;
51732;SDS011;39139;53.144;6.244;2022-09-21T03:57:15;5.63;;;0.90;;
51732;SDS011;39139;53.144;6.244;2022-09-21T03:59:40;0.57;;;0.47;;
51732;SDS011;39139;53.144;6.244;2022-09-21T04:02:06;1.67;;;0.80;;
51732;SDS011;39139;53.144;6.244;2022-09-21T04:04:32;1.17;;;0.60;;
51732;SDS011;39139;53.144;6.244;2022-09-21T04:06:58;3.08;;;0.55;;
51732;SDS011;39139;53.144;6.244;2022-09-21T04:09:24;2.17;;;0.40;;
51732;SDS011;39139;53.144;6.244;2022-09-21T04:11:50;0.60;;;0.40;;
51732;SDS011;39139;53.144;6.244;2022-09-21T04:14:17;5.03;;;0.40;;
51732;SDS011;39139;53.144;6.244;2022-09-21T04:16:43;0.75;;;0.47;;
51732;SDS011;39139;53.144;6.244;2022-09-21T04:19:09;2.85;;;0.80;;
51732;SDS011;39139;53.144;6.244;2022-09-21T04:21:34;1.75;;;0.40;;
51732;SDS011;39139;53.144;6.244;2022-09-21T04:24:00;2.42;;;0.65;;
51732;SDS011;39139;53.144;6.244;2022-09-21T04:26:27;0.82;;;0.63;;
51732;SDS011;39139;53.144;6.244;2022-09-21T04:28:54;0.88;;;0.45;;
51732;SDS011;39139;53.144;6.244;2022-09-21T04:31:21;0.52;;;0.50;;
51732;SDS011;39139;53.144;6.244;2022-09-21T04:33:48;0.30;;;0.30;;
51732;SDS011;39139;53.144;6.244;2022-09-21T04:36:18;0.98;;;0.40;;
51732;SDS011;39139;53.144;6.244;2022-09-21T04:38:48;0.40;;;0.40;;
51732;SDS011;39139;53.144;6.244;2022-09-21T04:41:14;0.60;;;0.38;;
51732;SDS011;39139;53.144;6.244;2022-09-21T04:43:41;0.43;;;0.30;;
51732;SDS011;39139;53.144;6.244;2022-09-21T04:46:08;2.35;;;0.60;;
51732;SDS011;39139;53.144;6.244;2022-09-21T04:48:36;0.63;;;0.45;;
51732;SDS011;39139;53.144;6.244;2022-09-21T04:51:02;0.60;;;0.30;;
51732;SDS011;39139;53.144;6.244;2022-09-21T04:53:30;0.40;;;0.30;;
51732;SDS011;39139;53.144;6.244;2022-09-21T04:55:56;0.88;;;0.40;;
51732;SDS011;39139;53.144;6.244;2022-09-21T04:58:21;0.73;;;0.47;;
51732;SDS011;39139;53.144;6.244;2022-09-21T05:00:48;0.75;;;0.30;;
51732;SDS011;39139;53.144;6.244;2022-09-21T05:03:19;0.77;;;0.30;;
51732;SDS011;39139;53.144;6.244;2022-09-21T05:05:45;0.30;;;0.30;;
51732;SDS011;39139;53.144;6.244;2022-09-21T05:08:12;2.00;;;0.38;;
51732;SDS011;39139;53.144;6.244;2022-09-21T05:10:37;0.50;;;0.50;;
51732;SDS011;39139;53.144;6.244;2022-09-21T05:13:03;1.85;;;0.30;;
51732;SDS011;39139;53.144;6.244;2022-09-21T05:15:28;1.77;;;0.30;;
51732;SDS011;39139;53.144;6.244;2022-09-21T05:17:54;0.55;;;0.30;;
51732;SDS011;39139;53.144;6.244;2022-09-21T05:20:20;0.70;;;0.20;;
51732;SDS011;39139;53.144;6.244;2022-09-21T05:22:45;0.38;;;0.38;;
51732;SDS011;39139;53.144;6.244;2022-09-21T05:25:11;0.40;;;0.30;;
51732;SDS011;39139;53.144;6.244;2022-09-21T05:27:37;0.85;;;0.30;;
51732;SDS011;39139;53.144;6.244;2022-09-21T05:30:03;2.08;;;0.40;;
51732;SDS011;39139;53.144;6.244;2022-09-21T05:37:52;0.70;;;0.70;;
51732;SDS011;39139;53.144;6.244;2022-09-21T05:40:28;1.48;;;0.90;;
51732;SDS011;39139;53.144;6.244;2022-09-21T05:42:54;0.70;;;0.65;;
51732;SDS011;39139;53.144;6.244;2022-09-21T05:45:20;3.35;;;0.77;;
51732;SDS011;39139;53.144;6.244;2022-09-21T05:56:51;1.52;;;0.60;;
51732;SDS011;39139;53.144;6.244;2022-09-21T06:04:55;0.90;;;0.80;;
51732;SDS011;39139;53.144;6.244;2022-09-21T06:07:21;0.50;;;0.45;;
51732;SDS011;39139;53.144;6.244;2022-09-21T06:09:47;0.98;;;0.50;;
51732;SDS011;39139;53.144;6.244;2022-09-21T06:12:13;1.02;;;0.75;;
51732;SDS011;39139;53.144;6.244;2022-09-21T06:14:38;0.70;;;0.30;;
51732;SDS011;39139;53.144;6.244;2022-09-21T06:17:04;2.20;;;0.65;;
51732;SDS011;39139;53.144;6.244;2022-09-21T06:19:30;0.73;;;0.50;;
51732;SDS011;39139;53.144;6.244;2022-09-21T06:21:55;1.08;;;0.70;;
51732;SDS011;39139;53.144;6.244;2022-09-21T06:24:21;0.77;;;0.77;;
51732;SDS011;39139;53.144;6.244;2022-09-21T06:26:47;2.25;;;0.70;;
51732;SDS011;39139;53.144;6.244;2022-09-21T06:29:12;2.30;;;1.23;;
51732;SDS011;39139;53.144;6.244;2022-09-21T06:31:38;1.55;;;0.95;;
51732;SDS011;39139;53.144;6.244;2022-09-21T06:34:04;2.90;;;1.08;;
51732;SDS011;39139;53.144;6.244;2022-09-21T06:36:29;5.22;;;1.33;;
51732;SDS011;39139;53.144;6.244;2022-09-21T06:38:55;4.05;;;1.02;;
51732;SDS011;39139;53.144;6.244;2022-09-21T06:41:21;2.13;;;1.20;;
51732;SDS011;39139;53.144;6.244;2022-09-21T06:43:46;3.67;;;2.65;;
51732;SDS011;39139;53.144;6.244;2022-09-21T06:46:12;2.70;;;1.23;;
51732;SDS011;39139;53.144;6.244;2022-09-21T06:48:37;2.58;;;1.52;;
51732;SDS011;39139;53.144;6.244;2022-09-21T06:51:04;2.10;;;1.90;;
51732;SDS011;39139;53.144;6.244;2022-09-21T06:53:31;2.33;;;1.83;;
51732;SDS011;39139;53.144;6.244;2022-09-21T06:56:04;1.27;;;1.17;;
51732;SDS011;39139;53.144;6.244;2022-09-21T06:58:32;2.60;;;1.55;;
51732;SDS011;39139;53.144;6.244;2022-09-21T07:01:08;6.03;;;2.10;;
51732;SDS011;39139;53.144;6.244;2022-09-21T07:03:35;3.67;;;1.92;;
51732;SDS011;39139;53.144;6.244;2022-09-21T07:06:02;2.63;;;1.90;;
51732;SDS011;39139;53.144;6.244;2022-09-21T07:08:28;6.03;;;2.15;;
51732;SDS011;39139;53.144;6.244;2022-09-21T07:10:56;4.60;;;2.50;;
51732;SDS011;39139;53.144;6.244;2022-09-21T07:13:23;5.55;;;1.70;;
51732;SDS011;39139;53.144;6.244;2022-09-21T07:15:49;3.67;;;2.08;;
51732;SDS011;39139;53.144;6.244;2022-09-21T07:18:15;3.05;;;1.80;;
51732;SDS011;39139;53.144;6.244;2022-09-21T07:20:40;2.92;;;2.05;;
51732;SDS011;39139;53.144;6.244;2022-09-21T07:23:10;5.20;;;2.10;;
51732;SDS011;39139;53.144;6.244;2022-09-21T07:25:38;4.35;;;2.10;;
51732;SDS011;39139;53.144;6.244;2022-09-21T07:28:03;2.72;;;1.60;;
51732;SDS011;39139;53.144;6.244;2022-09-21T07:30:29;2.10;;;1.83;;
51732;SDS011;39139;53.144;6.244;2022-09-21T07:32:55;4.00;;;1.63;;
51732;SDS011;39139;53.144;6.244;2022-09-21T07:35:20;2.20;;;1.92;;
51732;SDS011;39139;53.144;6.244;2022-09-21T07:37:46;6.90;;;2.10;;
51732;SDS011;39139;53.144;6.244;2022-09-21T07:40:11;3.55;;;1.83;;
51732;SDS011;39139;53.144;6.244;2022-09-21T07:42:37;1.75;;;1.13;;
51732;SDS011;39139;53.144;6.244;2022-09-21T07:45:03;2.10;;;1.75;;
51732;SDS011;39139;53.144;6.244;2022-09-21T07:47:29;2.15;;;1.40;;
51732;SDS011;39139;53.144;6.244;2022-09-21T07:49:55;4.80;;;1.67;;
51732;SDS011;39139;53.144;6.244;2022-09-21T07:52:20;1.70;;;1.60;;
51732;SDS011;39139;53.144;6.244;2022-09-21T07:54:47;1.52;;;1.42;;
51732;SDS011;39139;53.144;6.244;2022-09-21T07:57:12;3.08;;;1.40;;
51732;SDS011;39139;53.144;6.244;2022-09-21T07:59:57;3.58;;;1.73;;
51732;SDS011;39139;53.144;6.244;2022-09-21T08:02:23;1.63;;;1.38;;
51732;SDS011;39139;53.144;6.244;2022-09-21T08:04:49;2.13;;;0.93;;
51732;SDS011;39139;53.144;6.244;2022-09-21T08:07:15;4.95;;;1.35;;
51732;SDS011;39139;53.144;6.244;2022-09-21T08:09:40;3.42;;;1.75;;
51732;SDS011;39139;53.144;6.244;2022-09-21T08:12:06;1.58;;;0.95;;
51732;SDS011;39139;53.144;6.244;2022-09-21T08:14:33;3.30;;;1.17;;
51732;SDS011;39139;53.144;6.244;2022-09-21T08:17:00;0.88;;;0.88;;
51732;SDS011;39139;53.144;6.244;2022-09-21T08:19:25;5.88;;;1.00;;
51732;SDS011;39139;53.144;6.244;2022-09-21T08:21:52;2.17;;;0.85;;
51732;SDS011;39139;53.144;6.244;2022-09-21T08:24:18;2.72;;;1.70;;
51732;SDS011;39139;53.144;6.244;2022-09-21T08:26:44;2.10;;;1.38;;
51732;SDS011;39139;53.144;6.244;2022-09-21T08:29:10;2.05;;;0.98;;
51732;SDS011;39139;53.144;6.244;2022-09-21T08:31:38;2.60;;;1.50;;
51732;SDS011;39139;53.144;6.244;2022-09-21T08:34:04;4.78;;;1.40;;
51732;SDS011;39139;53.144;6.244;2022-09-21T08:36:29;3.97;;;1.27;;
51732;SDS011;39139;53.144;6.244;2022-09-21T08:38:55;1.90;;;1.10;;
51732;SDS011;39139;53.144;6.244;2022-09-21T08:41:22;1.48;;;1.15;;
51732;SDS011;39139;53.144;6.244;2022-09-21T08:43:55;1.50;;;1.10;;
51732;SDS011;39139;53.144;6.244;2022-09-21T08:46:33;4.23;;;1.27;;
51732;SDS011;39139;53.144;6.244;2022-09-21T08:51:44;3.88;;;1.40;;
51732;SDS011;39139;53.144;6.244;2022-09-21T08:54:18;8.23;;;1.08;;
51732;SDS011;39139;53.144;6.244;2022-09-21T08:56:51;3.90;;;0.80;;
51732;SDS011;39139;53.144;6.244;2022-09-21T08:59:18;2.45;;;0.90;;
51732;SDS011;39139;53.144;6.244;2022-09-21T09:01:56;2.28;;;0.35;;
51732;SDS011;39139;53.144;6.244;2022-09-21T09:07:30;1.98;;;0.30;;
51732;SDS011;39139;53.144;6.244;2022-09-21T09:10:31;2.67;;;0.35;;
51732;SDS011;39139;53.144;6.244;2022-09-21T09:16:31;2.78;;;0.40;;
51732;SDS011;39139;53.144;6.244;2022-09-21T09:19:24;4.43;;;0.38;;
51732;SDS011;39139;53.144;6.244;2022-09-21T09:22:03;3.97;;;0.25;;
51732;SDS011;39139;53.144;6.244;2022-09-21T09:24:36;2.95;;;0.20;;
51732;SDS011;39139;53.144;6.244;2022-09-21T09:32:18;3.83;;;0.75;;
51732;SDS011;39139;53.144;6.244;2022-09-21T09:34:52;5.47;;;0.95;;
51732;SDS011;39139;53.144;6.244;2022-09-21T09:37:26;1.83;;;0.43;;
51732;SDS011;39139;53.144;6.244;2022-09-21T09:39:58;3.75;;;0.57;;
51732;SDS011;39139;53.144;6.244;2022-09-21T09:47:52;2.47;;;0.40;;
51732;SDS011;39139;53.144;6.244;2022-09-21T09:50:24;4.75;;;0.60;;
51732;SDS011;39139;53.144;6.244;2022-09-21T09:53:04;2.60;;;0.50;;
51732;SDS011;39139;53.144;6.244;2022-09-21T09:55:35;1.85;;;0.30;;
51732;SDS011;39139;53.144;6.244;2022-09-21T09:58:14;4.15;;;0.77;;
51732;SDS011;39139;53.144;6.244;2022-09-21T10:00:46;5.32;;;0.50;;
51732;SDS011;39139;53.144;6.244;2022-09-21T10:03:16;2.80;;;0.47;;
51732;SDS011;39139;53.144;6.244;2022-09-21T10:05:44;2.33;;;0.30;;
51732;SDS011;39139;53.144;6.244;2022-09-21T10:10:53;1.17;;;0.30;;
51732;SDS011;39139;53.144;6.244;2022-09-21T10:13:32;6.85;;;0.38;;
51732;SDS011;39139;53.144;6.244;2022-09-21T10:18:49;3.20;;;0.70;;
51732;SDS011;39139;53.144;6.244;2022-09-21T10:21:22;1.90;;;0.40;;
51732;SDS011;39139;53.144;6.244;2022-09-21T10:24:02;12.32;;;0.98;;
51732;SDS011;39139;53.144;6.244;2022-09-21T10:26:31;1.65;;;0.40;;
51732;SDS011;39139;53.144;6.244;2022-09-21T10:29:21;2.33;;;0.50;;
51732;SDS011;39139;53.144;6.244;2022-09-21T10:31:58;1.00;;;0.10;;
51732;SDS011;39139;53.144;6.244;2022-09-21T10:34:27;2.45;;;0.30;;
51732;SDS011;39139;53.144;6.244;2022-09-21T10:36:55;4.78;;;0.38;;
51732;SDS011;39139;53.144;6.244;2022-09-21T10:39:26;4.35;;;0.70;;
51732;SDS011;39139;53.144;6.244;2022-09-21T10:44:32;1.17;;;0.30;;
51732;SDS011;39139;53.144;6.244;2022-09-21T10:47:21;1.30;;;0.45;;
51732;SDS011;39139;53.144;6.244;2022-09-21T10:50:03;1.00;;;0.20;;
51732;SDS011;39139;53.144;6.244;2022-09-21T10:52:32;3.28;;;0.80;;
51732;SDS011;39139;53.144;6.244;2022-09-21T10:55:02;1.80;;;0.30;;
51732;SDS011;39139;53.144;6.244;2022-09-21T10:57:28;3.08;;;0.55;;
51732;SDS011;39139;53.144;6.244;2022-09-21T10:59:56;2.53;;;0.20;;
51732;SDS011;39139;53.144;6.244;2022-09-21T11:04:52;0.70;;;0.13;;
51732;SDS011;39139;53.144;6.244;2022-09-21T11:07:30;1.75;;;0.40;;
51732;SDS011;39139;53.144;6.244;2022-09-21T11:15:10;2.30;;;0.20;;
51732;SDS011;39139;53.144;6.244;2022-09-21T11:17:50;0.65;;;0.20;;
51732;SDS011;39139;53.144;6.244;2022-09-21T11:25:45;1.55;;;0.20;;
51732;SDS011;39139;53.144;6.244;2022-09-21T11:28:22;1.80;;;0.30;;
51732;SDS011;39139;53.144;6.244;2022-09-21T11:36:27;2.05;;;0.17;;
51732;SDS011;39139;53.144;6.244;2022-09-21T11:42:10;2.95;;;0.25;;
51732;SDS011;39139;53.144;6.244;2022-09-21T11:44:56;0.98;;;0.08;;
51732;SDS011;39139;53.144;6.244;2022-09-21T11:55:53;2.33;;;0.20;;
51732;SDS011;39139;53.144;6.244;2022-09-21T12:13:03;3.15;;;0.20;;
51732;SDS011;39139;53.144;6.244;2022-09-21T12:15:25;2.90;;;0.40;;
51732;SDS011;39139;53.144;6.244;2022-09-21T12:18:24;0.82;;;0.13;;
51732;SDS011;39139;53.144;6.244;2022-09-21T12:26:19;1.63;;;0.15;;
51732;SDS011;39139;53.144;6.244;2022-09-21T12:28:56;0.75;;;0.10;;
51732;SDS011;39139;53.144;6.244;2022-09-21T12:31:29;0.95;;;0.13;;
51732;SDS011;39139;53.144;6.244;2022-09-21T12:34:10;1.88;;;0.17;;
51732;SDS011;39139;53.144;6.244;2022-09-21T12:40:03;0.82;;;0.20;;
51732;SDS011;39139;53.144;6.244;2022-09-21T12:45:22;3.60;;;0.17;;
51732;SDS011;39139;53.144;6.244;2022-09-21T12:48:04;2.80;;;0.30;;
51732;SDS011;39139;53.144;6.244;2022-09-21T12:53:25;1.08;;;0.10;;
51732;SDS011;39139;53.144;6.244;2022-09-21T12:56:11;3.47;;;0.38;;
51732;SDS011;39139;53.144;6.244;2022-09-21T13:09:12;0.40;;;0.20;;
51732;SDS011;39139;53.144;6.244;2022-09-21T13:12:42;3.35;;;0.47;;
51732;SDS011;39139;53.144;6.244;2022-09-21T13:14:50;0.57;;;0.30;;
51732;SDS011;39139;53.144;6.244;2022-09-21T13:17:25;1.85;;;0.25;;
51732;SDS011;39139;53.144;6.244;2022-09-21T13:19:54;1.13;;;0.10;;
51732;SDS011;39139;53.144;6.244;2022-09-21T13:22:28;0.38;;;0.20;;
51732;SDS011;39139;53.144;6.244;2022-09-21T13:30:47;1.77;;;0.25;;
51732;SDS011;39139;53.144;6.244;2022-09-21T13:33:37;1.23;;;0.08;;
51732;SDS011;39139;53.144;6.244;2022-09-21T13:36:45;1.33;;;0.30;;
51732;SDS011;39139;53.144;6.244;2022-09-21T13:38:55;3.13;;;0.20;;
51732;SDS011;39139;53.144;6.244;2022-09-21T13:41:28;4.10;;;0.28;;
51732;SDS011;39139;53.144;6.244;2022-09-21T13:51:49;2.53;;;0.40;;
51732;SDS011;39139;53.144;6.244;2022-09-21T13:54:19;1.63;;;0.32;;
51732;SDS011;39139;53.144;6.244;2022-09-21T13:56:55;2.58;;;0.30;;
51732;SDS011;39139;53.144;6.244;2022-09-21T13:59:24;2.70;;;0.60;;
51732;SDS011;39139;53.144;6.244;2022-09-21T14:01:51;3.35;;;0.38;;
51732;SDS011;39139;53.144;6.244;2022-09-21T14:04:25;2.58;;;0.30;;
51732;SDS011;39139;53.144;6.244;2022-09-21T14:06:53;0.82;;;0.13;;
51732;SDS011;39139;53.144;6.244;2022-09-21T14:09:28;2.47;;;0.50;;
51732;SDS011;39139;53.144;6.244;2022-09-21T14:12:03;2.97;;;0.30;;
51732;SDS011;39139;53.144;6.244;2022-09-21T14:14:34;0.73;;;0.20;;
51732;SDS011;39139;53.144;6.244;2022-09-21T14:17:33;0.63;;;0.40;;
51732;SDS011;39139;53.144;6.244;2022-09-21T14:19:59;2.00;;;0.50;;
51732;SDS011;39139;53.144;6.244;2022-09-21T14:27:46;1.08;;;0.13;;
51732;SDS011;39139;53.144;6.244;2022-09-21T14:32:48;1.58;;;0.20;;
51732;SDS011;39139;53.144;6.244;2022-09-21T14:35:21;2.13;;;0.52;;
51732;SDS011;39139;53.144;6.244;2022-09-21T14:37:50;3.78;;;0.65;;
51732;SDS011;39139;53.144;6.244;2022-09-21T14:40:30;1.50;;;0.20;;
51732;SDS011;39139;53.144;6.244;2022-09-21T14:43:14;1.02;;;0.10;;
51732;SDS011;39139;53.144;6.244;2022-09-21T15:01:56;0.82;;;0.10;;
51732;SDS011;39139;53.144;6.244;2022-09-21T15:07:28;3.87;;;0.37;;
51732;SDS011;39139;53.144;6.244;2022-09-21T15:10:26;2.45;;;0.10;;
51732;SDS011;39139;53.144;6.244;2022-09-21T15:18:21;1.25;;;0.10;;
51732;SDS011;39139;53.144;6.244;2022-09-21T15:20:57;0.73;;;0.00;;
51732;SDS011;39139;53.144;6.244;2022-09-21T15:23:37;1.33;;;0.20;;
51732;SDS011;39139;53.144;6.244;2022-09-21T15:26:14;2.00;;;0.30;;
51732;SDS011;39139;53.144;6.244;2022-09-21T15:28:46;2.13;;;0.20;;
51732;SDS011;39139;53.144;6.244;2022-09-21T15:31:14;0.43;;;0.10;;
51732;SDS011;39139;53.144;6.244;2022-09-21T15:33:41;0.40;;;0.15;;
51732;SDS011;39139;53.144;6.244;2022-09-21T15:38:51;0.75;;;0.10;;
51732;SDS011;39139;53.144;6.244;2022-09-21T15:41:42;0.20;;;0.00;;
51732;SDS011;39139;53.144;6.244;2022-09-21T15:44:17;0.80;;;0.00;;
51732;SDS011;39139;53.144;6.244;2022-09-21T15:46:47;2.50;;;0.17;;
51732;SDS011;39139;53.144;6.244;2022-09-21T15:49:21;1.65;;;0.00;;
51732;SDS011;39139;53.144;6.244;2022-09-21T15:51:49;2.63;;;0.20;;
51732;SDS011;39139;53.144;6.244;2022-09-21T15:54:40;0.65;;;0.10;;
51732;SDS011;39139;53.144;6.244;2022-09-21T15:59:50;0.50;;;0.10;;
51732;SDS011;39139;53.144;6.244;2022-09-21T16:02:22;0.63;;;0.10;;
51732;SDS011;39139;53.144;6.244;2022-09-21T16:04:50;0.73;;;0.10;;
51732;SDS011;39139;53.144;6.244;2022-09-21T16:10:02;3.20;;;0.17;;
51732;SDS011;39139;53.144;6.244;2022-09-21T16:12:52;2.60;;;0.20;;
51732;SDS011;39139;53.144;6.244;2022-09-21T16:15:58;2.03;;;0.40;;
51732;SDS011;39139;53.144;6.244;2022-09-21T16:18:30;3.35;;;0.28;;
51732;SDS011;39139;53.144;6.244;2022-09-21T16:21:06;0.45;;;0.10;;
51732;SDS011;39139;53.144;6.244;2022-09-21T16:23:34;2.70;;;0.20;;
51732;SDS011;39139;53.144;6.244;2022-09-21T16:26:03;2.83;;;0.22;;
51732;SDS011;39139;53.144;6.244;2022-09-21T16:31:00;1.85;;;0.10;;
51732;SDS011;39139;53.144;6.244;2022-09-21T16:38:45;1.17;;;0.00;;
51732;SDS011;39139;53.144;6.244;2022-09-21T16:41:20;2.10;;;0.30;;
51732;SDS011;39139;53.144;6.244;2022-09-21T16:43:48;0.35;;;0.00;;
51732;SDS011;39139;53.144;6.244;2022-09-21T16:46:15;1.27;;;0.17;;
51732;SDS011;39139;53.144;6.244;2022-09-21T16:48:42;0.40;;;0.03;;
51732;SDS011;39139;53.144;6.244;2022-09-21T16:51:12;1.38;;;0.30;;
51732;SDS011;39139;53.144;6.244;2022-09-21T16:53:48;2.10;;;0.03;;
51732;SDS011;39139;53.144;6.244;2022-09-21T16:56:14;4.68;;;0.22;;
51732;SDS011;39139;53.144;6.244;2022-09-21T16:58:43;2.58;;;0.20;;
51732;SDS011;39139;53.144;6.244;2022-09-21T17:01:16;1.95;;;0.32;;
51732;SDS011;39139;53.144;6.244;2022-09-21T17:03:46;2.35;;;0.20;;
51732;SDS011;39139;53.144;6.244;2022-09-21T17:06:16;1.13;;;0.13;;
51732;SDS011;39139;53.144;6.244;2022-09-21T17:08:43;1.35;;;0.32;;
51732;SDS011;39139;53.144;6.244;2022-09-21T17:11:12;1.80;;;0.40;;
51732;SDS011;39139;53.144;6.244;2022-09-21T17:13:47;0.40;;;0.10;;
51732;SDS011;39139;53.144;6.244;2022-09-21T17:16:13;3.03;;;0.20;;
51732;SDS011;39139;53.144;6.244;2022-09-21T17:18:48;4.43;;;0.98;;
51732;SDS011;39139;53.144;6.244;2022-09-21T17:21:14;5.75;;;1.20;;
51732;SDS011;39139;53.144;6.244;2022-09-21T17:23:40;6.63;;;1.40;;
51732;SDS011;39139;53.144;6.244;2022-09-21T17:26:16;1.70;;;0.70;;
51732;SDS011;39139;53.144;6.244;2022-09-21T17:28:43;2.35;;;0.38;;
51732;SDS011;39139;53.144;6.244;2022-09-21T17:31:10;3.03;;;0.75;;
51732;SDS011;39139;53.144;6.244;2022-09-21T17:33:37;3.92;;;0.30;;
51732;SDS011;39139;53.144;6.244;2022-09-21T17:36:03;0.50;;;0.13;;
51732;SDS011;39139;53.144;6.244;2022-09-21T17:38:32;2.13;;;0.35;;
51732;SDS011;39139;53.144;6.244;2022-09-21T17:41:00;0.25;;;0.20;;
51732;SDS011;39139;53.144;6.244;2022-09-21T17:43:34;0.55;;;0.15;;
51732;SDS011;39139;53.144;6.244;2022-09-21T17:46:15;1.95;;;0.28;;
51732;SDS011;39139;53.144;6.244;2022-09-21T17:48:51;3.25;;;0.60;;
51732;SDS011;39139;53.144;6.244;2022-09-21T17:51:17;0.93;;;0.60;;
51732;SDS011;39139;53.144;6.244;2022-09-21T17:54:03;7.60;;;0.50;;
51732;SDS011;39139;53.144;6.244;2022-09-21T17:59:01;1.23;;;0.50;;
51732;SDS011;39139;53.144;6.244;2022-09-21T18:01:35;5.40;;;0.53;;
51732;SDS011;39139;53.144;6.244;2022-09-21T18:04:06;1.27;;;0.25;;
51732;SDS011;39139;53.144;6.244;2022-09-21T18:06:34;1.17;;;0.28;;
51732;SDS011;39139;53.144;6.244;2022-09-21T18:09:01;1.25;;;0.35;;
51732;SDS011;39139;53.144;6.244;2022-09-21T18:17:38;0.32;;;0.15;;
51732;SDS011;39139;53.144;6.244;2022-09-21T18:23:21;2.75;;;0.35;;
51732;SDS011;39139;53.144;6.244;2022-09-21T18:25:56;1.48;;;0.28;;
51732;SDS011;39139;53.144;6.244;2022-09-21T18:28:37;4.07;;;0.35;;
51732;SDS011;39139;53.144;6.244;2022-09-21T18:31:25;0.95;;;0.40;;
51732;SDS011;39139;53.144;6.244;2022-09-21T18:39:10;1.05;;;0.40;;
51732;SDS011;39139;53.144;6.244;2022-09-21T18:44:38;3.53;;;0.47;;
51732;SDS011;39139;53.144;6.244;2022-09-21T18:47:29;2.60;;;0.30;;
51732;SDS011;39139;53.144;6.244;2022-09-21T18:50:15;3.03;;;0.50;;
51732;SDS011;39139;53.144;6.244;2022-09-21T18:53:03;1.50;;;0.63;;
51732;SDS011;39139;53.144;6.244;2022-09-21T18:55:30;3.28;;;0.65;;
51732;SDS011;39139;53.144;6.244;2022-09-21T18:57:57;12.57;;;0.77;;
51732;SDS011;39139;53.144;6.244;2022-09-21T19:00:25;2.35;;;0.50;;
51732;SDS011;39139;53.144;6.244;2022-09-21T19:02:59;1.23;;;0.20;;